createdAt,value
2019-05-26T00:02:37.807Z,66.50
2019-05-26T00:12:48.292Z,66.70
2019-05-26T00:22:01.363Z,66.60
2019-05-26T00:31:56.129Z,66.40
2019-05-26T00:41:57.400Z,66.50
2019-05-26T00:44:27.308Z,66.30
2019-05-26T00:47:00.354Z,66.30
2019-05-26T00:53:01.255Z,66.30
2019-05-26T00:55:32.947Z,66.30
2019-05-26T01:05:08.884Z,66.20
2019-05-26T01:08:22.923Z,66.10
2019-05-26T01:11:28.719Z,66.20
2019-05-26T01:14:00.321Z,66.10
2019-05-26T01:17:39.273Z,66.10
2019-05-26T01:20:11.955Z,66.10
2019-05-26T01:26:10.927Z,66.10
2019-05-26T01:28:40.867Z,66.00
2019-05-26T01:31:12.674Z,66.00
2019-05-26T01:37:10.951Z,66.10
2019-05-26T01:43:12.873Z,65.90
2019-05-26T01:46:06.295Z,66.00
2019-05-26T01:48:40.332Z,65.90
2019-05-26T01:52:15.594Z,65.90
2019-05-26T01:55:01.468Z,66.00
2019-05-26T02:01:12.033Z,65.90
2019-05-26T02:07:13.346Z,66.00
2019-05-26T02:09:43.065Z,65.80
2019-05-26T02:13:09.407Z,65.90
2019-05-26T02:15:39.191Z,65.90
2019-05-26T02:18:10.961Z,65.80
2019-05-26T02:24:26.187Z,65.90
2019-05-26T02:26:56.059Z,65.80
2019-05-26T02:29:27.938Z,65.90
2019-05-26T02:32:51.240Z,65.80
2019-05-26T02:35:24.977Z,65.90
2019-05-26T02:38:07.050Z,65.90
2019-05-26T02:40:39.739Z,65.90
2019-05-26T02:43:46.820Z,65.80
2019-05-26T02:46:34.837Z,65.90
2019-05-26T02:49:04.910Z,65.80
2019-05-26T02:52:17.009Z,65.80
2019-05-26T02:58:15.482Z,65.60
2019-05-26T03:04:58.744Z,65.60
2019-05-26T03:08:33.452Z,65.60
2019-05-26T03:11:03.514Z,65.60
2019-05-26T03:13:35.020Z,65.50
2019-05-26T03:19:39.865Z,65.50
2019-05-26T03:22:22.136Z,65.60
2019-05-26T03:28:22.141Z,65.70
2019-05-26T03:30:54.947Z,65.60
2019-05-26T03:33:48.829Z,65.50
2019-05-26T03:39:50.312Z,65.50
2019-05-26T03:49:26.401Z,65.50
2019-05-26T03:52:22.687Z,65.50
2019-05-26T03:54:52.666Z,65.70
2019-05-26T03:58:07.137Z,65.60
2019-05-26T04:04:23.207Z,65.50
2019-05-26T04:10:08.284Z,65.80
2019-05-26T04:13:21.560Z,65.60
2019-05-26T04:16:34.842Z,65.60
2019-05-26T04:19:27.637Z,65.80
2019-05-26T04:33:08.905Z,65.80
2019-05-26T04:40:24.921Z,66.00
2019-05-26T04:43:47.193Z,65.70
2019-05-26T04:50:30.159Z,65.90
2019-05-26T05:00:28.405Z,65.80
2019-05-26T05:03:30.808Z,65.90
2019-05-26T05:07:14.645Z,66.20
2019-05-26T05:13:56.129Z,66.20
2019-05-26T05:20:40.691Z,65.90
2019-05-26T05:31:08.715Z,65.90
2019-05-26T05:34:33.447Z,66.30
2019-05-26T05:41:29.702Z,66.10
2019-05-26T05:51:20.097Z,65.80
2019-05-26T05:57:51.882Z,65.80
2019-05-26T06:01:28.400Z,65.80
2019-05-26T06:04:58.192Z,65.80
2019-05-26T06:11:36.978Z,65.80
2019-05-26T06:19:10.145Z,65.90
2019-05-26T06:33:04.232Z,65.80
2019-05-26T06:39:51.776Z,65.90
2019-05-26T06:44:52.040Z,66.00
2019-05-26T06:52:39.334Z,65.90
2019-05-26T06:59:54.738Z,65.80
2019-05-26T07:13:36.982Z,65.90
2019-05-26T07:16:54.576Z,65.90
2019-05-26T07:20:08.660Z,65.90
2019-05-26T07:26:39.716Z,66.10
2019-05-26T07:40:22.400Z,66.30
2019-05-26T07:59:42.508Z,66.10
2019-05-26T08:02:23.223Z,66.10
2019-05-26T08:05:49.700Z,66.10
2019-05-26T08:25:39.501Z,66.20
2019-05-26T08:28:30.010Z,66.40
2019-05-26T08:34:40.581Z,66.70
2019-05-26T08:37:10.719Z,66.40
2019-05-26T08:39:48.459Z,66.40
2019-05-26T08:42:27.025Z,66.40
2019-05-26T08:44:56.883Z,66.40
2019-05-26T08:47:26.767Z,66.40
2019-05-26T08:49:56.751Z,66.30
2019-05-26T08:53:21.810Z,66.30
2019-05-26T08:59:41.256Z,66.40
2019-05-26T09:02:13.043Z,66.50
2019-05-26T09:04:48.407Z,66.50
2019-05-26T09:07:21.690Z,66.40
2019-05-26T09:13:45.262Z,66.50
2019-05-26T09:16:33.716Z,66.50
2019-05-26T09:19:06.259Z,66.50
2019-05-26T09:21:42.097Z,66.70
2019-05-26T09:24:29.928Z,66.60
2019-05-26T09:27:01.700Z,66.60
2019-05-26T09:33:04.378Z,66.60
2019-05-26T09:35:35.823Z,66.70
2019-05-26T09:38:25.740Z,66.70
2019-05-26T09:40:58.170Z,66.70
2019-05-26T09:50:12.100Z,66.70
2019-05-26T09:52:42.039Z,66.80
2019-05-26T09:58:40.778Z,66.80
2019-05-26T10:01:13.690Z,66.80
2019-05-26T10:07:16.051Z,66.80
2019-05-26T10:09:48.913Z,66.80
2019-05-26T10:12:20.473Z,66.80
2019-05-26T10:22:04.002Z,66.80
2019-05-26T10:28:04.139Z,66.80
2019-05-26T10:30:37.996Z,66.80
2019-05-26T10:36:58.387Z,66.90
2019-05-26T10:39:34.038Z,66.90
2019-05-26T10:42:35.123Z,66.90
2019-05-26T10:45:34.317Z,66.90
2019-05-26T10:48:23.667Z,66.90
2019-05-26T10:51:33.671Z,66.90
2019-05-26T10:54:29.778Z,66.90
2019-05-26T10:57:33.651Z,66.90
2019-05-26T11:04:31.416Z,66.90
2019-05-26T11:07:21.953Z,66.90
2019-05-26T11:14:02.283Z,67.00
2019-05-26T11:23:23.171Z,67.00
2019-05-26T11:26:31.935Z,67.00
2019-05-26T11:32:35.147Z,67.10
2019-05-26T11:38:36.651Z,67.00
2019-05-26T11:41:15.634Z,67.10
2019-05-26T11:43:51.370Z,67.10
2019-05-26T11:49:27.057Z,67.10
2019-05-26T11:52:00.421Z,67.10
2019-05-26T11:54:34.807Z,67.10
2019-05-26T12:00:35.155Z,67.10
2019-05-26T12:03:53.049Z,67.10
2019-05-26T12:06:25.114Z,67.10
2019-05-26T12:08:54.907Z,67.10
2019-05-26T12:11:41.942Z,67.10
2019-05-26T12:15:06.578Z,67.10
2019-05-26T12:17:53.377Z,67.10
2019-05-26T12:20:32.801Z,67.10
2019-05-26T12:23:18.575Z,67.20
2019-05-26T12:26:16.395Z,67.20
2019-05-26T12:29:03.976Z,67.20
2019-05-26T12:32:13.799Z,67.20
2019-05-26T12:34:55.310Z,67.20
2019-05-26T12:37:48.556Z,67.20
2019-05-26T12:40:55.189Z,67.20
2019-05-26T12:43:53.219Z,67.20
2019-05-26T12:46:35.206Z,67.20
2019-05-26T12:49:35.498Z,67.20
2019-05-26T12:52:56.337Z,67.20
2019-05-26T12:56:26.624Z,67.30
2019-05-26T12:59:40.230Z,67.30
2019-05-26T13:02:41.109Z,67.30
2019-05-26T13:05:15.478Z,67.30
2019-05-26T13:08:18.862Z,67.30
2019-05-26T13:11:15.910Z,67.30
2019-05-26T13:20:33.890Z,67.40
2019-05-26T13:23:14.417Z,67.40
2019-05-26T13:25:58.957Z,67.40
2019-05-26T13:32:42.422Z,67.40
2019-05-26T13:35:33.468Z,67.40
2019-05-26T13:38:15.150Z,67.50
2019-05-26T13:41:00.169Z,67.50
2019-05-26T13:43:48.110Z,67.50
2019-05-26T13:46:17.930Z,67.60
2019-05-26T13:48:50.217Z,67.60
2019-05-26T13:51:19.992Z,67.60
2019-05-26T13:54:51.767Z,67.60
2019-05-26T13:57:30.168Z,67.60
2019-05-26T14:00:01.732Z,67.60
2019-05-26T14:02:36.938Z,67.70
2019-05-26T14:05:25.794Z,67.70
2019-05-26T14:08:36.299Z,67.70
2019-05-26T14:11:23.319Z,67.70
2019-05-26T14:14:05.373Z,67.80
2019-05-26T14:17:32.326Z,67.80
2019-05-26T14:20:11.850Z,67.80
2019-05-26T14:22:59.181Z,67.90
2019-05-26T14:25:34.515Z,67.90
2019-05-26T14:28:15.717Z,67.90
2019-05-26T14:30:55.376Z,67.90
2019-05-26T14:34:25.085Z,68.00
2019-05-26T14:36:58.425Z,67.90
2019-05-26T14:39:40.182Z,68.00
2019-05-26T14:42:48.343Z,68.10
2019-05-26T14:45:18.199Z,68.20
2019-05-26T14:47:55.817Z,68.20
2019-05-26T14:54:13.203Z,68.00
2019-05-26T14:57:00.226Z,68.00
2019-05-26T15:00:01.631Z,68.10
2019-05-26T15:06:23.410Z,68.10
2019-05-26T15:12:30.272Z,67.90
2019-05-26T15:15:13.878Z,68.00
2019-05-26T15:18:04.610Z,68.10
2019-05-26T15:20:56.188Z,68.50
2019-05-26T15:24:16.301Z,68.40
2019-05-26T15:27:08.101Z,68.40
2019-05-26T15:30:01.521Z,68.50
2019-05-26T15:32:44.459Z,69.10
2019-05-26T15:36:05.217Z,69.10
2019-05-26T15:38:46.515Z,69.30
2019-05-26T15:41:21.035Z,69.40
2019-05-26T15:44:12.875Z,69.40
2019-05-26T15:47:05.792Z,69.50
2019-05-26T15:49:49.868Z,69.30
2019-05-26T15:52:20.634Z,69.40
2019-05-26T15:54:53.599Z,69.30
2019-05-26T15:57:59.921Z,69.30
2019-05-26T16:00:32.207Z,69.40
2019-05-26T16:03:21.986Z,69.60
2019-05-26T16:06:08.856Z,69.50
2019-05-26T16:08:49.080Z,69.50
2019-05-26T16:11:53.547Z,69.50
2019-05-26T16:18:03.521Z,69.60
2019-05-26T16:25:13.216Z,69.30
2019-05-26T16:27:41.641Z,69.30
2019-05-26T16:34:18.186Z,69.80
2019-05-26T16:36:47.775Z,70.30
2019-05-26T16:39:36.040Z,70.20
2019-05-26T16:42:52.267Z,70.20
2019-05-26T16:45:25.448Z,70.10
2019-05-26T16:48:18.390Z,70.10
2019-05-26T16:55:10.279Z,70.10
2019-05-26T17:01:39.874Z,70.40
2019-05-26T17:04:11.093Z,70.50
2019-05-26T17:07:18.301Z,70.60
2019-05-26T17:10:06.462Z,70.70
2019-05-26T17:13:34.103Z,70.60
2019-05-26T17:16:38.274Z,71.00
2019-05-26T17:19:13.166Z,70.90
2019-05-26T17:21:48.218Z,70.90
2019-05-26T17:24:22.551Z,71.00
2019-05-26T17:26:52.691Z,70.90
2019-05-26T17:29:43.884Z,71.40
2019-05-26T17:39:25.835Z,71.20
2019-05-26T17:42:25.563Z,71.20
2019-05-26T17:44:59.041Z,71.50
2019-05-26T17:51:01.515Z,71.50
2019-05-26T17:54:18.394Z,71.50
2019-05-26T17:57:37.303Z,71.50
2019-05-26T18:00:47.343Z,71.50
2019-05-26T18:03:43.590Z,71.50
2019-05-26T18:09:56.558Z,71.50
2019-05-26T18:12:45.523Z,71.50
2019-05-26T18:15:40.561Z,71.50
2019-05-26T18:18:15.634Z,71.50
2019-05-26T18:21:04.342Z,71.60
2019-05-26T18:24:01.966Z,71.70
2019-05-26T18:27:28.074Z,71.70
2019-05-26T18:30:17.677Z,71.50
2019-05-26T18:33:13.263Z,71.60
2019-05-26T18:36:08.076Z,71.70
2019-05-26T18:42:30.411Z,71.60
2019-05-26T18:45:32.797Z,71.70
2019-05-26T18:48:34.681Z,71.70
2019-05-26T18:51:04.727Z,71.70
2019-05-26T18:57:52.555Z,71.60
2019-05-26T19:00:55.184Z,71.60
2019-05-26T19:03:29.996Z,71.70
2019-05-26T19:06:22.274Z,71.60
2019-05-26T19:09:11.221Z,71.70
2019-05-26T19:11:55.949Z,71.60
2019-05-26T19:14:48.156Z,71.60
2019-05-26T19:18:20.063Z,71.60
2019-05-26T19:21:03.395Z,71.60
2019-05-26T19:24:15.491Z,71.70
2019-05-26T19:34:14.110Z,71.70
2019-05-26T19:37:25.557Z,71.60
2019-05-26T19:40:20.548Z,71.60
2019-05-26T19:43:11.769Z,71.70
2019-05-26T19:46:47.175Z,71.60
2019-05-26T19:56:01.363Z,71.70
2019-05-26T20:02:27.232Z,71.60
2019-05-26T20:05:20.100Z,71.60
2019-05-26T20:08:28.939Z,71.70
2019-05-26T20:11:33.853Z,71.60
2019-05-26T20:14:31.412Z,71.70
2019-05-26T20:17:23.368Z,71.60
2019-05-26T20:20:53.475Z,71.60
2019-05-26T20:23:40.358Z,71.60
2019-05-26T20:26:23.212Z,71.60
2019-05-26T20:29:06.964Z,71.60
2019-05-26T20:35:16.181Z,71.60
2019-05-26T20:37:52.179Z,71.60
2019-05-26T20:40:37.257Z,71.60
2019-05-26T20:43:33.177Z,71.60
2019-05-26T20:49:44.381Z,71.60
2019-05-26T21:03:15.599Z,71.50
2019-05-26T21:12:58.991Z,71.50
2019-05-26T21:19:20.838Z,71.40
2019-05-26T21:22:03.731Z,71.40
2019-05-26T21:28:31.964Z,71.30
2019-05-26T21:35:21.027Z,71.30
2019-05-26T21:41:27.801Z,71.20
2019-05-26T21:44:48.114Z,71.20
2019-05-26T21:47:24.524Z,71.10
2019-05-26T21:50:15.901Z,71.20
2019-05-26T21:52:54.292Z,71.20
2019-05-26T21:56:10.842Z,71.20
2019-05-26T21:59:19.512Z,71.20
2019-05-26T22:05:58.099Z,71.10
2019-05-26T22:08:32.090Z,71.10
2019-05-26T22:13:59.930Z,71.10
2019-05-26T22:20:26.394Z,71.10
2019-05-26T22:25:57.227Z,71.00
2019-05-26T22:28:45.284Z,71.00
2019-05-26T22:31:38.682Z,71.00
2019-05-26T22:34:23.689Z,71.00
2019-05-26T22:37:18.006Z,71.00
2019-05-26T22:40:19.326Z,71.00
2019-05-26T22:43:51.452Z,71.00
2019-05-26T22:46:35.972Z,70.90
2019-05-26T22:49:21.156Z,70.90
2019-05-26T22:55:37.099Z,70.90
2019-05-26T22:58:13.773Z,70.90
2019-05-26T23:01:50.799Z,70.90
2019-05-26T23:08:05.622Z,70.90
2019-05-26T23:10:38.344Z,70.90
2019-05-26T23:16:55.242Z,70.90
2019-05-26T23:20:16.302Z,70.90
2019-05-26T23:22:47.402Z,70.90
2019-05-26T23:29:10.855Z,70.90
2019-05-26T23:36:17.939Z,70.90
2019-05-26T23:43:11.363Z,70.90
2019-05-26T23:45:55.295Z,70.80
2019-05-26T23:48:39.227Z,70.80
2019-05-26T23:51:21.538Z,70.80
2019-05-26T23:54:26.318Z,70.80
2019-05-26T23:57:13.740Z,70.80
